createdAt,value
2023-03-01T00:01:07.818Z,2.17
2023-03-01T00:03:35.376Z,2.00
2023-03-01T00:06:06.085Z,1.70
2023-03-01T00:08:34.226Z,1.67
2023-03-01T00:11:12.915Z,1.90
2023-03-01T00:13:40.464Z,2.03
2023-03-01T00:16:10.318Z,1.83
2023-03-01T00:18:37.116Z,1.90
2023-03-01T00:21:04.417Z,2.05
2023-03-01T00:23:31.254Z,1.85
2023-03-01T00:25:58.066Z,1.88
2023-03-01T00:28:24.834Z,1.80
2023-03-01T00:30:51.645Z,1.80
2023-03-01T00:33:25.221Z,2.17
2023-03-01T00:35:52.028Z,2.10
2023-03-01T00:38:19.200Z,2.55
2023-03-01T00:40:45.950Z,2.20
2023-03-01T00:43:16.883Z,2.80
2023-03-01T00:45:43.844Z,2.20
2023-03-01T00:48:10.586Z,2.00
2023-03-01T00:50:37.401Z,2.03
2023-03-01T00:53:12.201Z,1.80
2023-03-01T00:55:38.982Z,2.33
2023-03-01T00:58:05.799Z,2.35
2023-03-01T01:00:32.613Z,2.40
2023-03-01T01:02:59.377Z,2.65
2023-03-01T01:05:26.179Z,2.80
2023-03-01T01:07:52.980Z,2.60
2023-03-01T01:10:19.850Z,2.78
2023-03-01T01:12:47.447Z,2.15
2023-03-01T01:15:17.448Z,1.83
2023-03-01T01:17:44.419Z,1.75
2023-03-01T01:20:12.248Z,1.90
2023-03-01T01:22:39.146Z,2.05
2023-03-01T01:25:06.352Z,1.92
2023-03-01T01:27:33.170Z,2.08
2023-03-01T01:29:59.925Z,2.05
2023-03-01T01:32:27.457Z,1.90
2023-03-01T01:34:54.249Z,2.00
2023-03-01T01:37:21.261Z,1.60
2023-03-01T01:39:48.037Z,1.83
2023-03-01T01:42:17.756Z,2.20
2023-03-01T01:44:47.952Z,2.00
2023-03-01T01:47:19.850Z,1.95
2023-03-01T01:49:57.106Z,2.38
2023-03-01T01:52:26.459Z,3.85
2023-03-01T01:55:12.204Z,3.50
2023-03-01T01:57:46.339Z,3.42
2023-03-01T02:00:32.599Z,2.97
2023-03-01T02:03:11.348Z,3.30
2023-03-01T02:05:59.260Z,2.80
2023-03-01T02:08:31.355Z,2.10
2023-03-01T02:11:00.715Z,2.03
2023-03-01T02:13:28.491Z,1.90
2023-03-01T02:15:55.564Z,2.33
2023-03-01T02:18:25.018Z,1.92
2023-03-01T02:21:30.026Z,1.90
2023-03-01T02:23:57.803Z,1.73
2023-03-01T02:26:33.605Z,2.22
2023-03-01T02:29:00.661Z,1.77
2023-03-01T02:31:42.613Z,1.75
2023-03-01T02:34:21.293Z,2.08
2023-03-01T02:36:57.941Z,1.80
2023-03-01T02:39:30.879Z,2.10
2023-03-01T02:41:58.503Z,1.67
2023-03-01T02:44:25.282Z,1.83
2023-03-01T02:46:55.339Z,1.80
2023-03-01T02:49:28.992Z,1.70
2023-03-01T02:52:33.549Z,1.75
2023-03-01T02:55:11.443Z,1.60
2023-03-01T02:57:41.703Z,1.55
2023-03-01T03:00:20.031Z,1.58
2023-03-01T03:02:49.989Z,1.80
2023-03-01T03:05:23.328Z,1.75
2023-03-01T03:07:51.208Z,1.60
2023-03-01T03:10:24.851Z,1.77
2023-03-01T03:12:57.749Z,1.95
2023-03-01T03:15:25.223Z,1.60
2023-03-01T03:17:53.385Z,1.75
2023-03-01T03:20:22.948Z,1.60
2023-03-01T03:22:52.038Z,1.80
2023-03-01T03:25:19.853Z,1.77
2023-03-01T03:27:49.197Z,1.67
2023-03-01T03:30:19.203Z,1.90
2023-03-01T03:32:53.294Z,1.83
2023-03-01T03:35:26.616Z,1.88
2023-03-01T03:38:02.722Z,2.20
2023-03-01T03:40:37.020Z,1.40
2023-03-01T03:43:06.253Z,1.50
2023-03-01T03:45:34.549Z,1.75
2023-03-01T03:48:02.210Z,1.73
2023-03-01T03:50:28.995Z,1.70
2023-03-01T03:52:55.867Z,2.22
2023-03-01T03:55:22.901Z,1.90
2023-03-01T03:57:52.906Z,2.17
2023-03-01T04:00:22.362Z,1.98
2023-03-01T04:02:49.790Z,1.80
2023-03-01T04:05:25.649Z,1.98
2023-03-01T04:08:08.495Z,2.00
2023-03-01T04:10:46.759Z,1.85
2023-03-01T04:13:16.240Z,1.80
2023-03-01T04:15:46.399Z,1.73
2023-03-01T04:18:22.267Z,1.88
2023-03-01T04:20:49.060Z,1.85
2023-03-01T04:23:22.706Z,1.70
2023-03-01T04:25:57.841Z,1.70
2023-03-01T04:28:34.842Z,1.65
2023-03-01T04:31:20.314Z,1.73
2023-03-01T04:33:53.004Z,1.70
2023-03-01T04:36:25.976Z,1.60
2023-03-01T04:38:53.064Z,1.67
2023-03-01T04:41:21.926Z,1.50
2023-03-01T04:43:49.620Z,1.70
2023-03-01T04:46:23.053Z,1.73
2023-03-01T04:48:50.244Z,1.98
2023-03-01T04:51:17.596Z,2.00
2023-03-01T04:53:45.306Z,1.90
2023-03-01T04:56:21.288Z,2.20
2023-03-01T04:58:48.152Z,2.05
2023-03-01T05:01:20.337Z,2.10
2023-03-01T05:03:53.601Z,2.08
2023-03-01T05:06:21.537Z,2.05
2023-03-01T05:08:48.389Z,1.88
2023-03-01T05:11:21.285Z,1.80
2023-03-01T05:13:48.118Z,1.85
2023-03-01T05:16:21.293Z,1.67
2023-03-01T05:18:48.039Z,1.83
2023-03-01T05:21:18.156Z,1.90
2023-03-01T05:23:45.638Z,1.73
2023-03-01T05:26:27.344Z,1.88
2023-03-01T05:28:59.804Z,1.65
2023-03-01T05:31:27.104Z,1.48
2023-03-01T05:33:54.017Z,1.80
2023-03-01T05:36:20.769Z,1.65
2023-03-01T05:38:47.956Z,1.70
2023-03-01T05:41:16.189Z,2.10
2023-03-01T05:43:44.642Z,2.17
2023-03-01T05:46:13.444Z,2.00
2023-03-01T05:48:40.302Z,1.95
2023-03-01T05:51:14.303Z,2.17
2023-03-01T05:53:41.022Z,1.88
2023-03-01T05:56:08.063Z,1.88
2023-03-01T05:58:34.920Z,2.60
2023-03-01T06:01:01.757Z,2.90
2023-03-01T06:03:28.534Z,3.10
2023-03-01T06:05:59.324Z,3.08
2023-03-01T06:08:28.303Z,3.53
2023-03-01T06:10:55.464Z,3.72
2023-03-01T06:13:22.807Z,3.58
2023-03-01T06:15:49.592Z,4.10
2023-03-01T06:18:16.460Z,3.95
2023-03-01T06:20:43.252Z,3.70
2023-03-01T06:23:10.808Z,4.35
2023-03-01T06:25:38.382Z,4.88
2023-03-01T06:28:05.586Z,5.40
2023-03-01T06:30:33.111Z,6.45
2023-03-01T06:33:08.342Z,6.50
2023-03-01T06:35:35.409Z,6.60
2023-03-01T06:38:10.380Z,7.40
2023-03-01T06:40:37.152Z,7.30
2023-03-01T06:43:03.938Z,8.13
2023-03-01T06:45:30.730Z,7.50
2023-03-01T06:48:07.771Z,6.70
2023-03-01T06:50:36.134Z,7.03
2023-03-01T06:53:03.622Z,7.60
2023-03-01T06:55:30.709Z,8.88
2023-03-01T06:57:59.408Z,7.72
2023-03-01T07:00:27.177Z,9.50
2023-03-01T07:02:54.525Z,10.13
2023-03-01T07:05:22.481Z,10.50
2023-03-01T07:07:49.227Z,10.35
2023-03-01T07:10:22.348Z,9.68
2023-03-01T07:12:49.117Z,10.00
2023-03-01T07:15:19.768Z,9.77
2023-03-01T07:17:48.679Z,9.00
2023-03-01T07:20:22.337Z,8.70
2023-03-01T07:22:49.286Z,9.27
2023-03-01T07:25:18.668Z,8.15
2023-03-01T07:27:49.511Z,9.13
2023-03-01T07:30:16.617Z,8.55
2023-03-01T07:32:43.434Z,8.52
2023-03-01T07:35:10.359Z,8.98
2023-03-01T07:37:37.234Z,9.13
2023-03-01T07:40:04.444Z,9.55
2023-03-01T07:42:31.217Z,9.15
2023-03-01T07:44:57.992Z,9.90
2023-03-01T07:47:24.788Z,9.57
2023-03-01T07:49:51.594Z,8.50
2023-03-01T07:52:20.890Z,9.32
2023-03-01T07:54:47.678Z,8.68
2023-03-01T07:57:18.591Z,8.00
2023-03-01T07:59:45.551Z,9.75
2023-03-01T08:02:12.616Z,9.82
2023-03-01T08:04:39.466Z,9.10
2023-03-01T08:07:07.024Z,8.77
2023-03-01T08:09:37.595Z,8.15
2023-03-01T08:12:05.801Z,8.00
2023-03-01T08:14:33.570Z,8.98
2023-03-01T08:17:00.704Z,7.93
2023-03-01T08:19:29.174Z,8.50
2023-03-01T08:21:59.138Z,8.18
2023-03-01T08:24:26.614Z,9.45
2023-03-01T08:26:53.417Z,8.65
2023-03-01T08:29:20.377Z,6.95
2023-03-01T08:31:47.702Z,7.90
2023-03-01T08:34:16.410Z,8.27
2023-03-01T08:36:46.281Z,7.85
2023-03-01T08:39:16.274Z,7.78
2023-03-01T08:41:43.612Z,8.48
2023-03-01T08:44:12.395Z,7.40
2023-03-01T08:46:41.526Z,8.10
2023-03-01T08:49:14.544Z,7.40
2023-03-01T08:51:42.186Z,7.15
2023-03-01T08:54:13.565Z,7.18
2023-03-01T08:56:40.364Z,6.90
2023-03-01T08:59:07.472Z,7.20
2023-03-01T09:01:34.674Z,7.75
2023-03-01T09:04:02.084Z,7.90
2023-03-01T09:06:33.185Z,9.05
2023-03-01T09:09:00.579Z,7.85
2023-03-01T09:11:28.746Z,8.07
2023-03-01T09:13:55.634Z,8.48
2023-03-01T09:16:23.697Z,9.30
2023-03-01T09:18:52.364Z,8.10
2023-03-01T09:21:30.624Z,8.02
2023-03-01T09:24:06.679Z,8.65
2023-03-01T09:26:34.651Z,10.10
2023-03-01T09:29:01.798Z,9.43
2023-03-01T09:31:28.649Z,9.20
2023-03-01T09:33:55.921Z,9.45
2023-03-01T09:36:26.327Z,9.55
2023-03-01T09:38:54.240Z,9.82
2023-03-01T09:41:56.787Z,9.05
2023-03-01T09:44:45.585Z,7.85
2023-03-01T09:47:34.906Z,8.82
2023-03-01T09:50:07.804Z,9.02
2023-03-01T09:52:42.334Z,8.15
2023-03-01T09:55:14.848Z,8.27
2023-03-01T09:57:47.939Z,7.15
2023-03-01T10:00:24.030Z,7.90
2023-03-01T10:03:01.707Z,8.20
2023-03-01T10:05:34.707Z,9.05
2023-03-01T10:08:55.936Z,9.38
2023-03-01T10:11:25.453Z,9.75
2023-03-01T10:14:00.684Z,8.85
2023-03-01T10:16:35.657Z,9.43
2023-03-01T10:19:06.112Z,10.15
2023-03-01T10:21:40.964Z,11.18
2023-03-01T10:24:16.526Z,8.45
2023-03-01T10:27:03.864Z,7.85
2023-03-01T10:29:47.217Z,9.48
2023-03-01T10:32:14.190Z,10.00
2023-03-01T10:34:40.987Z,10.07
2023-03-01T10:37:16.429Z,10.30
2023-03-01T10:40:02.240Z,9.90
2023-03-01T10:42:31.146Z,9.95
2023-03-01T10:44:58.385Z,10.10
2023-03-01T10:47:28.951Z,10.02
2023-03-01T10:50:04.407Z,8.88
2023-03-01T10:52:41.232Z,10.55
2023-03-01T10:55:17.176Z,10.10
2023-03-01T10:57:43.991Z,10.45
2023-03-01T11:00:24.276Z,8.95
2023-03-01T11:03:03.865Z,7.47
2023-03-01T11:05:31.668Z,8.35
2023-03-01T11:08:00.581Z,8.30
2023-03-01T11:10:33.463Z,9.02
2023-03-01T11:13:19.196Z,8.80
2023-03-01T11:16:13.529Z,9.35
2023-03-01T11:18:48.073Z,10.30
2023-03-01T11:21:16.896Z,9.10
2023-03-01T11:23:46.490Z,10.75
2023-03-01T11:26:14.694Z,9.45
2023-03-01T11:28:44.164Z,9.75
2023-03-01T11:31:13.345Z,9.77
2023-03-01T11:34:06.328Z,9.45
2023-03-01T11:36:42.725Z,8.93
2023-03-01T11:39:25.162Z,10.05
2023-03-01T11:42:12.906Z,10.23
2023-03-01T11:44:48.908Z,10.63
2023-03-01T11:47:44.123Z,10.23
2023-03-01T11:50:17.482Z,11.27
2023-03-01T11:52:59.538Z,10.93
2023-03-01T11:55:45.726Z,12.18
2023-03-01T11:58:37.012Z,11.10
2023-03-01T12:01:27.645Z,11.10
2023-03-01T12:03:54.518Z,10.52
2023-03-01T12:06:32.950Z,9.00
2023-03-01T12:09:20.085Z,10.48
2023-03-01T12:12:18.527Z,12.07
2023-03-01T12:14:53.553Z,11.57
2023-03-01T12:17:32.273Z,11.40
2023-03-01T12:20:17.653Z,10.88
2023-03-01T12:23:20.606Z,10.25
2023-03-01T12:26:03.350Z,9.25
2023-03-01T12:28:59.237Z,10.90
2023-03-01T12:31:53.599Z,10.73
2023-03-01T12:34:57.737Z,8.77
2023-03-01T12:37:39.992Z,8.90
2023-03-01T12:40:25.030Z,9.70
2023-03-01T12:43:04.045Z,10.07
2023-03-01T12:45:39.917Z,10.70
2023-03-01T12:48:46.215Z,11.00
2023-03-01T12:51:19.536Z,10.45
2023-03-01T12:53:54.940Z,10.50
2023-03-01T12:56:30.052Z,10.25
2023-03-01T12:59:03.347Z,9.15
2023-03-01T13:01:55.079Z,10.10
2023-03-01T13:04:57.628Z,10.13
2023-03-01T13:08:04.662Z,9.98
2023-03-01T13:10:50.739Z,9.75
2023-03-01T13:13:26.396Z,9.52
2023-03-01T13:15:53.806Z,9.40
2023-03-01T13:18:20.547Z,8.68
2023-03-01T13:20:49.844Z,9.23
2023-03-01T13:23:28.318Z,8.93
2023-03-01T13:26:00.919Z,7.97
2023-03-01T13:28:36.918Z,8.63
2023-03-01T13:31:05.787Z,8.75
2023-03-01T13:33:34.167Z,8.77
2023-03-01T13:36:02.078Z,8.38
2023-03-01T13:38:49.388Z,8.00
2023-03-01T13:41:19.038Z,6.82
2023-03-01T13:43:48.432Z,8.27
2023-03-01T13:46:23.604Z,7.60
2023-03-01T13:48:54.476Z,7.88
2023-03-01T13:51:28.282Z,8.18
2023-03-01T13:53:58.716Z,7.05
2023-03-01T13:56:28.750Z,8.20
2023-03-01T13:59:21.387Z,7.47
2023-03-01T14:02:00.676Z,7.68
2023-03-01T14:04:33.613Z,8.10
2023-03-01T14:07:18.792Z,8.23
2023-03-01T14:09:55.142Z,7.95
2023-03-01T14:12:43.763Z,7.65
2023-03-01T14:15:38.387Z,6.82
2023-03-01T14:18:27.977Z,7.30
2023-03-01T14:20:54.922Z,7.88
2023-03-01T14:23:24.137Z,6.82
2023-03-01T14:25:58.783Z,7.93
2023-03-01T14:28:28.904Z,8.18
2023-03-01T14:31:00.777Z,7.55
2023-03-01T14:33:30.115Z,7.80
2023-03-01T14:36:14.253Z,6.95
2023-03-01T14:38:45.827Z,7.15
2023-03-01T14:41:13.785Z,7.22
2023-03-01T14:43:43.055Z,7.22
2023-03-01T14:46:19.153Z,7.70
2023-03-01T14:48:46.425Z,6.15
2023-03-01T14:51:14.024Z,6.57
2023-03-01T14:53:50.729Z,5.88
2023-03-01T14:56:19.901Z,5.85
2023-03-01T14:58:50.361Z,6.15
2023-03-01T15:01:18.967Z,5.72
2023-03-01T15:03:48.144Z,6.55
2023-03-01T15:06:22.468Z,5.93
2023-03-01T15:08:51.478Z,5.97
2023-03-01T15:11:23.858Z,6.50
2023-03-01T15:13:51.143Z,5.78
2023-03-01T15:16:23.172Z,5.10
2023-03-01T15:18:57.763Z,5.32
2023-03-01T15:21:26.595Z,4.95
2023-03-01T15:24:04.684Z,5.13
2023-03-01T15:26:33.690Z,5.53
2023-03-01T15:29:02.012Z,5.40
2023-03-01T15:31:39.575Z,5.35
2023-03-01T15:34:10.958Z,5.72
2023-03-01T15:36:40.872Z,5.82
2023-03-01T15:39:27.667Z,4.82
2023-03-01T15:41:56.369Z,5.82
2023-03-01T15:44:42.649Z,5.30
2023-03-01T15:47:24.190Z,5.28
2023-03-01T15:49:55.451Z,5.38
2023-03-01T15:52:23.175Z,5.60
2023-03-01T15:54:50.350Z,6.00
2023-03-01T15:57:17.512Z,6.10
2023-03-01T15:59:45.447Z,5.85
2023-03-01T16:02:16.020Z,5.35
2023-03-01T16:04:43.159Z,5.90
2023-03-01T16:07:10.881Z,5.57
2023-03-01T16:09:37.665Z,5.78
2023-03-01T16:12:04.677Z,5.45
2023-03-01T16:14:31.430Z,5.97
2023-03-01T16:16:58.654Z,6.10
2023-03-01T16:19:25.786Z,6.00
2023-03-01T16:21:53.118Z,5.63
2023-03-01T16:24:20.281Z,5.30
2023-03-01T16:26:47.115Z,5.03
2023-03-01T16:29:14.025Z,4.93
2023-03-01T16:31:40.872Z,5.05
2023-03-01T16:34:07.738Z,6.60
2023-03-01T16:36:34.762Z,5.80
2023-03-01T16:39:01.963Z,4.90
2023-03-01T16:41:29.833Z,5.00
2023-03-01T16:43:56.937Z,4.82
2023-03-01T16:46:29.143Z,4.90
2023-03-01T16:48:56.852Z,3.83
2023-03-01T16:51:24.935Z,3.70
2023-03-01T16:53:52.601Z,4.55
2023-03-01T16:56:20.592Z,3.45
2023-03-01T16:58:47.888Z,4.00
2023-03-01T17:01:16.919Z,3.80
2023-03-01T17:03:45.206Z,4.53
2023-03-01T17:06:13.764Z,4.28
2023-03-01T17:08:41.127Z,4.40
2023-03-01T17:11:11.115Z,4.25
2023-03-01T17:13:39.399Z,4.47
2023-03-01T17:16:08.249Z,4.50
2023-03-01T17:18:35.758Z,4.13
2023-03-01T17:21:02.666Z,3.88
2023-03-01T17:23:31.099Z,4.20
2023-03-01T17:25:58.457Z,4.90
2023-03-01T17:28:28.458Z,4.80
2023-03-01T17:30:56.216Z,4.60
2023-03-01T17:33:23.240Z,4.20
2023-03-01T17:35:51.444Z,3.88
2023-03-01T17:38:19.132Z,3.70
2023-03-01T17:40:46.989Z,3.63
2023-03-01T17:43:15.867Z,3.55
2023-03-01T17:45:48.649Z,4.65
2023-03-01T17:48:16.926Z,3.97
2023-03-01T17:50:44.251Z,4.30
2023-03-01T17:53:11.818Z,3.88
2023-03-01T17:55:41.373Z,5.15
2023-03-01T17:58:09.516Z,5.72
2023-03-01T18:00:37.617Z,5.80
2023-03-01T18:03:04.703Z,5.35
2023-03-01T18:05:37.731Z,4.90
2023-03-01T18:08:05.102Z,4.15
2023-03-01T18:10:33.392Z,4.18
2023-03-01T18:13:00.247Z,4.63
2023-03-01T18:15:27.464Z,5.78
2023-03-01T18:17:54.485Z,5.53
2023-03-01T18:20:21.469Z,5.50
2023-03-01T18:22:49.706Z,5.68
2023-03-01T18:25:16.611Z,5.80
2023-03-01T18:27:43.407Z,5.65
2023-03-01T18:30:10.887Z,5.65
2023-03-01T18:32:39.674Z,5.07
2023-03-01T18:35:07.824Z,5.03
2023-03-01T18:37:34.637Z,4.10
2023-03-01T18:40:01.621Z,4.15
2023-03-01T18:42:28.404Z,3.20
2023-03-01T18:44:55.223Z,3.33
2023-03-01T18:47:22.041Z,3.85
2023-03-01T18:49:48.823Z,3.15
2023-03-01T18:52:15.723Z,3.22
2023-03-01T18:54:42.500Z,3.30
2023-03-01T18:57:09.269Z,3.33
2023-03-01T18:59:36.361Z,4.00
2023-03-01T19:02:03.298Z,3.92
2023-03-01T19:04:30.212Z,4.85
2023-03-01T19:06:58.027Z,5.63
2023-03-01T19:09:24.803Z,5.25
2023-03-01T19:11:51.736Z,4.75
2023-03-01T19:14:18.563Z,4.80
2023-03-01T19:16:45.354Z,4.18
2023-03-01T19:19:12.662Z,3.72
2023-03-01T19:21:39.485Z,3.58
2023-03-01T19:24:07.384Z,3.38
2023-03-01T19:26:34.809Z,3.10
2023-03-01T19:29:03.619Z,2.97
2023-03-01T19:31:31.538Z,2.60
2023-03-01T19:34:11.433Z,2.38
2023-03-01T19:36:42.899Z,2.33
2023-03-01T19:39:11.321Z,2.33
2023-03-01T19:41:38.113Z,2.45
2023-03-01T19:44:06.068Z,2.50
2023-03-01T19:46:34.190Z,3.05
2023-03-01T19:49:03.207Z,2.95
2023-03-01T19:51:33.550Z,3.45
2023-03-01T19:54:00.514Z,3.25
2023-03-01T19:56:27.471Z,2.78
2023-03-01T19:59:00.394Z,3.28
2023-03-01T20:01:32.459Z,3.28
2023-03-01T20:03:59.746Z,3.22
2023-03-01T20:06:26.652Z,4.10
2023-03-01T20:08:54.161Z,3.90
2023-03-01T20:11:21.697Z,3.38
2023-03-01T20:13:48.718Z,2.45
2023-03-01T20:16:17.420Z,2.38
2023-03-01T20:18:44.639Z,2.65
2023-03-01T20:21:23.435Z,2.85
2023-03-01T20:23:54.676Z,2.30
2023-03-01T20:26:23.098Z,2.20
2023-03-01T20:28:52.049Z,2.63
2023-03-01T20:31:20.561Z,3.20
2023-03-01T20:33:47.637Z,3.25
2023-03-01T20:36:14.692Z,2.63
2023-03-01T20:38:41.692Z,2.92
2023-03-01T20:41:13.253Z,2.50
2023-03-01T20:43:42.164Z,3.05
2023-03-01T20:46:11.848Z,3.90
2023-03-01T20:48:43.067Z,3.45
2023-03-01T20:51:12.239Z,2.90
2023-03-01T20:53:39.305Z,3.00
2023-03-01T20:56:08.425Z,2.92
2023-03-01T20:58:36.286Z,2.58
2023-03-01T21:01:05.227Z,2.75
2023-03-01T21:03:32.653Z,3.30
2023-03-01T21:06:02.115Z,2.97
2023-03-01T21:08:30.279Z,2.80
2023-03-01T21:10:57.767Z,2.80
2023-03-01T21:13:25.663Z,2.95
2023-03-01T21:16:01.338Z,2.60
2023-03-01T21:18:29.880Z,3.10
2023-03-01T21:21:11.649Z,2.95
2023-03-01T21:23:40.328Z,2.55
2023-03-01T21:26:14.357Z,3.33
2023-03-01T21:28:42.207Z,3.83
2023-03-01T21:31:20.971Z,3.33
2023-03-01T21:33:59.875Z,3.67
2023-03-01T21:36:28.890Z,3.80
2023-03-01T21:38:56.591Z,3.88
2023-03-01T21:41:26.279Z,3.58
2023-03-01T21:43:55.023Z,3.10
2023-03-01T21:46:24.816Z,3.20
2023-03-01T21:48:53.210Z,2.78
2023-03-01T21:51:21.618Z,2.03
2023-03-01T21:53:50.578Z,2.55
2023-03-01T21:56:20.260Z,2.22
2023-03-01T21:58:47.537Z,2.33
2023-03-01T22:01:16.513Z,2.13
2023-03-01T22:03:47.525Z,2.00
2023-03-01T22:06:20.681Z,1.95
2023-03-01T22:08:55.416Z,2.17
2023-03-01T22:11:23.123Z,2.15
2023-03-01T22:13:52.422Z,2.42
2023-03-01T22:16:25.417Z,2.40
2023-03-01T22:18:52.469Z,2.30
2023-03-01T22:21:20.610Z,2.53
2023-03-01T22:23:47.440Z,2.97
2023-03-01T22:26:30.169Z,2.67
2023-03-01T22:28:59.647Z,3.03
2023-03-01T22:31:27.076Z,3.28
2023-03-01T22:33:58.321Z,3.30
2023-03-01T22:36:25.761Z,2.50
2023-03-01T22:38:59.316Z,2.00
2023-03-01T22:41:30.990Z,2.47
2023-03-01T22:43:57.999Z,2.40
2023-03-01T22:46:25.688Z,2.05
2023-03-01T22:48:52.991Z,2.30
2023-03-01T22:51:26.790Z,2.33
2023-03-01T22:53:54.598Z,2.10
2023-03-01T22:56:24.759Z,1.95
2023-03-01T22:58:51.585Z,1.90
2023-03-01T23:01:21.114Z,2.45
2023-03-01T23:03:48.152Z,2.47
2023-03-01T23:06:22.650Z,2.50
2023-03-01T23:08:51.840Z,2.40
2023-03-01T23:11:19.865Z,2.40
2023-03-01T23:13:46.892Z,2.40
2023-03-01T23:16:20.861Z,1.85
2023-03-01T23:18:47.708Z,2.10
2023-03-01T23:21:22.953Z,3.20
2023-03-01T23:23:50.035Z,2.70
2023-03-01T23:26:24.797Z,2.58
2023-03-01T23:28:51.607Z,2.67
2023-03-01T23:31:24.867Z,3.08
2023-03-01T23:33:51.692Z,2.42
2023-03-01T23:36:27.410Z,2.40
2023-03-01T23:38:57.946Z,2.95
2023-03-01T23:41:28.366Z,3.10
2023-03-01T23:43:57.185Z,3.08
2023-03-01T23:46:26.497Z,4.13
2023-03-01T23:48:54.219Z,3.33
2023-03-01T23:51:24.306Z,2.50
2023-03-01T23:53:55.909Z,2.72
2023-03-01T23:56:28.369Z,2.60
2023-03-01T23:58:56.762Z,2.50
